sensor_id;sensor_type;location;lat;lon;timestamp;temperature;humidity
8910;DHT22;4490;49.072;8.804;2023-04-08T00:02:13;9.30;99.90
8910;DHT22;4490;49.072;8.804;2023-04-08T00:04:38;9.30;99.90
8910;DHT22;4490;49.072;8.804;2023-04-08T00:07:04;9.30;99.90
8910;DHT22;4490;49.072;8.804;2023-04-08T00:09:30;9.30;99.90
8910;DHT22;4490;49.072;8.804;2023-04-08T00:11:56;9.30;99.90
8910;DHT22;4490;49.072;8.804;2023-04-08T00:14:22;9.30;99.90
8910;DHT22;4490;49.072;8.804;2023-04-08T00:16:47;9.20;99.90
8910;DHT22;4490;49.072;8.804;2023-04-08T00:19:13;9.20;99.90
8910;DHT22;4490;49.072;8.804;2023-04-08T00:21:39;9.20;99.90
8910;DHT22;4490;49.072;8.804;2023-04-08T00:24:05;9.20;99.90
8910;DHT22;4490;49.072;8.804;2023-04-08T00:26:31;9.20;99.90
8910;DHT22;4490;49.072;8.804;2023-04-08T00:28:57;9.10;99.90
8910;DHT22;4490;49.072;8.804;2023-04-08T00:31:22;9.10;99.90
8910;DHT22;4490;49.072;8.804;2023-04-08T00:33:48;9.10;99.90
8910;DHT22;4490;49.072;8.804;2023-04-08T00:36:14;9.00;99.90
8910;DHT22;4490;49.072;8.804;2023-04-08T00:38:39;9.00;99.90
8910;DHT22;4490;49.072;8.804;2023-04-08T00:41:05;9.00;99.90
8910;DHT22;4490;49.072;8.804;2023-04-08T00:43:31;9.00;99.90
8910;DHT22;4490;49.072;8.804;2023-04-08T00:45:57;8.90;99.90
8910;DHT22;4490;49.072;8.804;2023-04-08T00:48:22;9.00;99.90
8910;DHT22;4490;49.072;8.804;2023-04-08T00:50:48;9.00;99.90
8910;DHT22;4490;49.072;8.804;2023-04-08T00:53:17;9.00;99.90
8910;DHT22;4490;49.072;8.804;2023-04-08T00:55:43;9.00;99.90
8910;DHT22;4490;49.072;8.804;2023-04-08T00:58:10;9.00;99.90
8910;DHT22;4490;49.072;8.804;2023-04-08T01:00:39;9.00;99.90
8910;DHT22;4490;49.072;8.804;2023-04-08T01:06:01;9.10;99.90
8910;DHT22;4490;49.072;8.804;2023-04-08T01:08:31;9.10;99.90
8910;DHT22;4490;49.072;8.804;2023-04-08T01:11:01;9.10;99.90
8910;DHT22;4490;49.072;8.804;2023-04-08T01:13:30;9.10;99.90
8910;DHT22;4490;49.072;8.804;2023-04-08T01:15:57;9.10;99.90
8910;DHT22;4490;49.072;8.804;2023-04-08T01:18:23;9.20;99.90
8910;DHT22;4490;49.072;8.804;2023-04-08T01:20:49;9.20;99.90
8910;DHT22;4490;49.072;8.804;2023-04-08T01:23:45;9.20;99.90
8910;DHT22;4490;49.072;8.804;2023-04-08T01:26:20;9.20;99.90
8910;DHT22;4490;49.072;8.804;2023-04-08T01:28:49;9.20;99.90
8910;DHT22;4490;49.072;8.804;2023-04-08T01:31:17;9.20;99.90
8910;DHT22;4490;49.072;8.804;2023-04-08T01:33:45;9.20;99.90
8910;DHT22;4490;49.072;8.804;2023-04-08T01:36:13;9.20;99.90
8910;DHT22;4490;49.072;8.804;2023-04-08T01:38:39;9.20;99.90
8910;DHT22;4490;49.072;8.804;2023-04-08T01:41:05;9.30;99.90
8910;DHT22;4490;49.072;8.804;2023-04-08T01:43:33;9.30;99.90
8910;DHT22;4490;49.072;8.804;2023-04-08T01:46:00;9.30;99.90
8910;DHT22;4490;49.072;8.804;2023-04-08T01:48:27;9.30;99.90
8910;DHT22;4490;49.072;8.804;2023-04-08T01:50:54;9.30;99.90
8910;DHT22;4490;49.072;8.804;2023-04-08T01:53:20;9.40;99.90
8910;DHT22;4490;49.072;8.804;2023-04-08T01:55:50;9.40;99.90
8910;DHT22;4490;49.072;8.804;2023-04-08T01:58:20;9.40;99.90
8910;DHT22;4490;49.072;8.804;2023-04-08T02:00:46;9.40;99.90
8910;DHT22;4490;49.072;8.804;2023-04-08T02:03:13;9.40;99.90
8910;DHT22;4490;49.072;8.804;2023-04-08T02:05:41;9.40;99.90
8910;DHT22;4490;49.072;8.804;2023-04-08T02:08:07;9.40;99.90
8910;DHT22;4490;49.072;8.804;2023-04-08T02:10:32;9.40;99.90
8910;DHT22;4490;49.072;8.804;2023-04-08T02:12:58;9.40;99.90
8910;DHT22;4490;49.072;8.804;2023-04-08T02:15:27;9.40;99.90
8910;DHT22;4490;49.072;8.804;2023-04-08T02:18:02;9.40;99.90
8910;DHT22;4490;49.072;8.804;2023-04-08T02:20:42;9.40;99.90
8910;DHT22;4490;49.072;8.804;2023-04-08T02:25:39;9.40;99.90
8910;DHT22;4490;49.072;8.804;2023-04-08T02:28:09;9.40;99.90
8910;DHT22;4490;49.072;8.804;2023-04-08T02:30:39;9.40;99.90
8910;DHT22;4490;49.072;8.804;2023-04-08T02:33:07;9.40;99.90
8910;DHT22;4490;49.072;8.804;2023-04-08T02:35:33;9.40;99.90
8910;DHT22;4490;49.072;8.804;2023-04-08T02:38:00;9.40;99.90
8910;DHT22;4490;49.072;8.804;2023-04-08T02:40:30;9.40;99.90
8910;DHT22;4490;49.072;8.804;2023-04-08T02:42:57;9.40;99.90
8910;DHT22;4490;49.072;8.804;2023-04-08T02:45:27;9.30;99.90
8910;DHT22;4490;49.072;8.804;2023-04-08T02:47:54;9.30;99.90
8910;DHT22;4490;49.072;8.804;2023-04-08T02:50:20;9.30;99.90
8910;DHT22;4490;49.072;8.804;2023-04-08T02:52:46;9.20;99.90
8910;DHT22;4490;49.072;8.804;2023-04-08T02:55:11;9.20;99.90
8910;DHT22;4490;49.072;8.804;2023-04-08T02:57:39;9.20;99.90
8910;DHT22;4490;49.072;8.804;2023-04-08T03:00:05;9.20;99.90
8910;DHT22;4490;49.072;8.804;2023-04-08T03:02:31;9.20;99.90
8910;DHT22;4490;49.072;8.804;2023-04-08T03:04:57;9.10;99.90
8910;DHT22;4490;49.072;8.804;2023-04-08T03:07:23;9.10;99.90
8910;DHT22;4490;49.072;8.804;2023-04-08T03:09:49;9.10;99.90
8910;DHT22;4490;49.072;8.804;2023-04-08T03:12:15;9.10;99.90
8910;DHT22;4490;49.072;8.804;2023-04-08T03:14:41;9.10;99.90
8910;DHT22;4490;49.072;8.804;2023-04-08T03:17:06;9.10;99.90
8910;DHT22;4490;49.072;8.804;2023-04-08T03:19:32;9.10;99.90
8910;DHT22;4490;49.072;8.804;2023-04-08T03:21:58;9.00;99.90
8910;DHT22;4490;49.072;8.804;2023-04-08T03:24:23;9.10;99.90
8910;DHT22;4490;49.072;8.804;2023-04-08T03:26:49;9.00;99.90
8910;DHT22;4490;49.072;8.804;2023-04-08T03:29:15;9.00;99.90
8910;DHT22;4490;49.072;8.804;2023-04-08T03:31:41;9.00;99.90
8910;DHT22;4490;49.072;8.804;2023-04-08T03:34:06;9.00;99.90
8910;DHT22;4490;49.072;8.804;2023-04-08T03:36:32;9.00;99.90
8910;DHT22;4490;49.072;8.804;2023-04-08T03:38:57;9.00;99.90
8910;DHT22;4490;49.072;8.804;2023-04-08T03:41:23;9.00;99.90
8910;DHT22;4490;49.072;8.804;2023-04-08T03:43:49;9.00;99.90
8910;DHT22;4490;49.072;8.804;2023-04-08T03:46:15;9.00;99.90
8910;DHT22;4490;49.072;8.804;2023-04-08T03:48:40;9.00;99.90
8910;DHT22;4490;49.072;8.804;2023-04-08T03:51:06;9.00;99.90
8910;DHT22;4490;49.072;8.804;2023-04-08T03:53:32;9.00;99.90
8910;DHT22;4490;49.072;8.804;2023-04-08T03:55:58;9.00;99.90
8910;DHT22;4490;49.072;8.804;2023-04-08T03:58:24;9.00;99.90
8910;DHT22;4490;49.072;8.804;2023-04-08T04:00:50;9.00;99.90
8910;DHT22;4490;49.072;8.804;2023-04-08T04:03:15;9.00;99.90
8910;DHT22;4490;49.072;8.804;2023-04-08T04:05:41;9.00;99.90
8910;DHT22;4490;49.072;8.804;2023-04-08T04:08:07;9.00;99.90
8910;DHT22;4490;49.072;8.804;2023-04-08T04:10:33;9.00;99.90
8910;DHT22;4490;49.072;8.804;2023-04-08T04:12:59;9.00;99.90
8910;DHT22;4490;49.072;8.804;2023-04-08T04:15:25;9.00;99.90
8910;DHT22;4490;49.072;8.804;2023-04-08T04:17:51;9.00;99.90
8910;DHT22;4490;49.072;8.804;2023-04-08T04:20:17;9.00;99.90
8910;DHT22;4490;49.072;8.804;2023-04-08T04:22:43;9.00;99.90
8910;DHT22;4490;49.072;8.804;2023-04-08T04:25:09;9.00;99.90
8910;DHT22;4490;49.072;8.804;2023-04-08T04:27:34;9.00;99.90
8910;DHT22;4490;49.072;8.804;2023-04-08T04:30:01;9.00;99.90
8910;DHT22;4490;49.072;8.804;2023-04-08T04:32:27;8.90;99.90
8910;DHT22;4490;49.072;8.804;2023-04-08T04:34:52;8.90;99.90
8910;DHT22;4490;49.072;8.804;2023-04-08T04:37:18;8.90;99.90
8910;DHT22;4490;49.072;8.804;2023-04-08T04:39:44;8.80;99.90
8910;DHT22;4490;49.072;8.804;2023-04-08T04:42:09;8.80;99.90
8910;DHT22;4490;49.072;8.804;2023-04-08T04:44:35;8.70;99.90
8910;DHT22;4490;49.072;8.804;2023-04-08T04:47:01;8.70;99.90
8910;DHT22;4490;49.072;8.804;2023-04-08T04:49:27;8.70;99.90
8910;DHT22;4490;49.072;8.804;2023-04-08T04:51:52;8.70;99.90
8910;DHT22;4490;49.072;8.804;2023-04-08T04:54:18;8.70;99.90
8910;DHT22;4490;49.072;8.804;2023-04-08T04:56:44;8.70;99.90
8910;DHT22;4490;49.072;8.804;2023-04-08T04:59:09;8.60;99.90
8910;DHT22;4490;49.072;8.804;2023-04-08T05:01:35;8.70;99.90
8910;DHT22;4490;49.072;8.804;2023-04-08T05:04:01;8.70;99.90
8910;DHT22;4490;49.072;8.804;2023-04-08T05:06:26;8.60;99.90
8910;DHT22;4490;49.072;8.804;2023-04-08T05:08:52;8.70;99.90
8910;DHT22;4490;49.072;8.804;2023-04-08T05:11:18;8.60;99.90
8910;DHT22;4490;49.072;8.804;2023-04-08T05:13:44;8.60;99.90
8910;DHT22;4490;49.072;8.804;2023-04-08T05:16:10;8.60;99.90
8910;DHT22;4490;49.072;8.804;2023-04-08T05:18:39;8.60;99.90
8910;DHT22;4490;49.072;8.804;2023-04-08T05:21:04;8.60;99.90
8910;DHT22;4490;49.072;8.804;2023-04-08T05:23:30;8.60;99.90
8910;DHT22;4490;49.072;8.804;2023-04-08T05:25:55;8.50;99.90
8910;DHT22;4490;49.072;8.804;2023-04-08T05:28:21;8.50;99.90
8910;DHT22;4490;49.072;8.804;2023-04-08T05:30:51;8.40;99.90
8910;DHT22;4490;49.072;8.804;2023-04-08T05:33:17;8.40;99.90
8910;DHT22;4490;49.072;8.804;2023-04-08T05:35:43;8.40;99.90
8910;DHT22;4490;49.072;8.804;2023-04-08T05:38:09;8.30;99.90
8910;DHT22;4490;49.072;8.804;2023-04-08T05:40:34;8.30;99.90
8910;DHT22;4490;49.072;8.804;2023-04-08T05:43:00;8.30;99.90
8910;DHT22;4490;49.072;8.804;2023-04-08T05:45:27;8.30;99.90
8910;DHT22;4490;49.072;8.804;2023-04-08T05:47:53;8.30;99.90
8910;DHT22;4490;49.072;8.804;2023-04-08T05:50:19;8.40;99.90
8910;DHT22;4490;49.072;8.804;2023-04-08T05:52:44;8.40;99.90
8910;DHT22;4490;49.072;8.804;2023-04-08T05:55:11;8.40;99.90
8910;DHT22;4490;49.072;8.804;2023-04-08T05:57:37;8.40;99.90
8910;DHT22;4490;49.072;8.804;2023-04-08T06:00:04;8.40;99.90
8910;DHT22;4490;49.072;8.804;2023-04-08T06:02:30;8.40;99.90
8910;DHT22;4490;49.072;8.804;2023-04-08T06:04:56;8.50;99.90
8910;DHT22;4490;49.072;8.804;2023-04-08T06:07:22;8.50;99.90
8910;DHT22;4490;49.072;8.804;2023-04-08T06:09:47;8.60;99.90
8910;DHT22;4490;49.072;8.804;2023-04-08T06:12:13;8.70;99.90
8910;DHT22;4490;49.072;8.804;2023-04-08T06:14:38;8.70;99.90
8910;DHT22;4490;49.072;8.804;2023-04-08T06:17:04;8.80;99.90
8910;DHT22;4490;49.072;8.804;2023-04-08T06:19:30;8.90;99.90
8910;DHT22;4490;49.072;8.804;2023-04-08T06:21:56;8.90;99.90
8910;DHT22;4490;49.072;8.804;2023-04-08T06:24:24;9.00;99.90
8910;DHT22;4490;49.072;8.804;2023-04-08T06:26:52;9.00;99.90
8910;DHT22;4490;49.072;8.804;2023-04-08T06:29:18;9.10;99.90
8910;DHT22;4490;49.072;8.804;2023-04-08T06:31:44;9.10;99.90
8910;DHT22;4490;49.072;8.804;2023-04-08T06:34:10;9.20;99.90
8910;DHT22;4490;49.072;8.804;2023-04-08T06:36:35;9.20;99.90
8910;DHT22;4490;49.072;8.804;2023-04-08T06:39:02;9.30;99.90
8910;DHT22;4490;49.072;8.804;2023-04-08T06:41:29;9.30;99.90
8910;DHT22;4490;49.072;8.804;2023-04-08T06:43:55;9.30;99.90
8910;DHT22;4490;49.072;8.804;2023-04-08T06:46:20;9.40;99.90
8910;DHT22;4490;49.072;8.804;2023-04-08T06:48:46;9.30;99.90
8910;DHT22;4490;49.072;8.804;2023-04-08T06:51:12;9.40;99.90
8910;DHT22;4490;49.072;8.804;2023-04-08T06:53:37;9.40;99.90
8910;DHT22;4490;49.072;8.804;2023-04-08T06:56:03;9.50;99.90
8910;DHT22;4490;49.072;8.804;2023-04-08T06:58:29;9.50;99.90
8910;DHT22;4490;49.072;8.804;2023-04-08T07:00:55;9.50;99.90
8910;DHT22;4490;49.072;8.804;2023-04-08T07:03:21;9.50;99.90
8910;DHT22;4490;49.072;8.804;2023-04-08T07:05:47;9.60;99.90
8910;DHT22;4490;49.072;8.804;2023-04-08T07:08:12;9.70;99.90
8910;DHT22;4490;49.072;8.804;2023-04-08T07:10:38;9.70;99.90
8910;DHT22;4490;49.072;8.804;2023-04-08T07:13:04;9.70;99.90
8910;DHT22;4490;49.072;8.804;2023-04-08T07:15:29;9.80;99.90
8910;DHT22;4490;49.072;8.804;2023-04-08T07:17:55;9.80;99.90
8910;DHT22;4490;49.072;8.804;2023-04-08T07:20:22;9.90;99.90
8910;DHT22;4490;49.072;8.804;2023-04-08T07:22:48;9.90;99.90
8910;DHT22;4490;49.072;8.804;2023-04-08T07:25:13;10.00;99.90
8910;DHT22;4490;49.072;8.804;2023-04-08T07:27:40;10.00;99.90
8910;DHT22;4490;49.072;8.804;2023-04-08T07:30:06;10.10;99.90
8910;DHT22;4490;49.072;8.804;2023-04-08T07:32:32;10.10;99.90
8910;DHT22;4490;49.072;8.804;2023-04-08T07:34:58;10.20;99.90
8910;DHT22;4490;49.072;8.804;2023-04-08T07:37:25;10.20;99.90
8910;DHT22;4490;49.072;8.804;2023-04-08T07:39:51;10.20;99.90
8910;DHT22;4490;49.072;8.804;2023-04-08T07:42:16;10.30;99.90
8910;DHT22;4490;49.072;8.804;2023-04-08T07:44:44;10.40;99.90
8910;DHT22;4490;49.072;8.804;2023-04-08T07:47:10;10.40;99.90
8910;DHT22;4490;49.072;8.804;2023-04-08T07:49:36;10.50;99.90
8910;DHT22;4490;49.072;8.804;2023-04-08T07:52:03;10.50;99.90
8910;DHT22;4490;49.072;8.804;2023-04-08T07:54:30;10.60;99.90
8910;DHT22;4490;49.072;8.804;2023-04-08T07:56:58;10.80;99.90
8910;DHT22;4490;49.072;8.804;2023-04-08T07:59:24;11.00;99.90
8910;DHT22;4490;49.072;8.804;2023-04-08T08:01:50;11.20;99.90
8910;DHT22;4490;49.072;8.804;2023-04-08T08:04:16;11.40;99.90
8910;DHT22;4490;49.072;8.804;2023-04-08T08:06:42;11.50;99.90
8910;DHT22;4490;49.072;8.804;2023-04-08T08:09:08;11.60;99.90
8910;DHT22;4490;49.072;8.804;2023-04-08T08:11:33;11.70;99.90
8910;DHT22;4490;49.072;8.804;2023-04-08T08:13:59;11.80;99.90
8910;DHT22;4490;49.072;8.804;2023-04-08T08:16:29;11.90;99.90
8910;DHT22;4490;49.072;8.804;2023-04-08T08:18:54;12.00;99.90
8910;DHT22;4490;49.072;8.804;2023-04-08T08:21:20;12.20;99.90
8910;DHT22;4490;49.072;8.804;2023-04-08T08:23:46;12.40;99.90
8910;DHT22;4490;49.072;8.804;2023-04-08T08:26:11;12.50;99.90
8910;DHT22;4490;49.072;8.804;2023-04-08T08:28:38;12.60;99.90
8910;DHT22;4490;49.072;8.804;2023-04-08T08:31:04;12.70;99.90
8910;DHT22;4490;49.072;8.804;2023-04-08T08:33:31;12.70;99.60
8910;DHT22;4490;49.072;8.804;2023-04-08T08:35:56;12.80;99.90
8910;DHT22;4490;49.072;8.804;2023-04-08T08:38:23;12.90;99.30
8910;DHT22;4490;49.072;8.804;2023-04-08T08:40:56;13.00;97.30
8910;DHT22;4490;49.072;8.804;2023-04-08T08:43:25;13.10;96.60
8910;DHT22;4490;49.072;8.804;2023-04-08T08:45:52;13.10;97.10
8910;DHT22;4490;49.072;8.804;2023-04-08T08:48:18;13.10;97.10
8910;DHT22;4490;49.072;8.804;2023-04-08T08:50:44;13.20;96.70
8910;DHT22;4490;49.072;8.804;2023-04-08T08:53:10;13.40;95.70
8910;DHT22;4490;49.072;8.804;2023-04-08T08:55:36;13.50;95.00
8910;DHT22;4490;49.072;8.804;2023-04-08T08:58:04;13.70;95.00
8910;DHT22;4490;49.072;8.804;2023-04-08T09:00:36;13.90;94.90
8910;DHT22;4490;49.072;8.804;2023-04-08T09:03:18;14.20;93.30
8910;DHT22;4490;49.072;8.804;2023-04-08T09:05:50;14.40;90.70
8910;DHT22;4490;49.072;8.804;2023-04-08T09:08:27;14.50;90.50
8910;DHT22;4490;49.072;8.804;2023-04-08T09:13:35;14.80;84.80
8910;DHT22;4490;49.072;8.804;2023-04-08T09:16:06;14.80;86.10
8910;DHT22;4490;49.072;8.804;2023-04-08T09:18:33;14.90;85.70
8910;DHT22;4490;49.072;8.804;2023-04-08T09:21:00;14.90;85.00
8910;DHT22;4490;49.072;8.804;2023-04-08T09:23:42;15.00;84.00
8910;DHT22;4490;49.072;8.804;2023-04-08T09:26:10;15.10;83.00
8910;DHT22;4490;49.072;8.804;2023-04-08T09:28:36;15.10;83.80
8910;DHT22;4490;49.072;8.804;2023-04-08T09:31:21;15.20;82.80
8910;DHT22;4490;49.072;8.804;2023-04-08T09:33:51;15.20;81.30
8910;DHT22;4490;49.072;8.804;2023-04-08T09:36:18;15.20;81.40
8910;DHT22;4490;49.072;8.804;2023-04-08T09:38:44;15.10;79.70
8910;DHT22;4490;49.072;8.804;2023-04-08T09:41:14;15.00;80.60
8910;DHT22;4490;49.072;8.804;2023-04-08T09:43:47;14.90;80.70
8910;DHT22;4490;49.072;8.804;2023-04-08T09:46:17;14.80;80.20
8910;DHT22;4490;49.072;8.804;2023-04-08T09:49:03;14.70;79.60
8910;DHT22;4490;49.072;8.804;2023-04-08T09:51:39;14.70;79.60
8910;DHT22;4490;49.072;8.804;2023-04-08T09:54:14;14.70;79.50
8910;DHT22;4490;49.072;8.804;2023-04-08T09:57:08;14.70;78.50
8910;DHT22;4490;49.072;8.804;2023-04-08T09:59:36;14.80;78.50
8910;DHT22;4490;49.072;8.804;2023-04-08T10:02:08;14.80;78.30
8910;DHT22;4490;49.072;8.804;2023-04-08T10:04:38;14.80;77.90
8910;DHT22;4490;49.072;8.804;2023-04-08T10:07:07;14.80;78.70
8910;DHT22;4490;49.072;8.804;2023-04-08T10:09:34;14.70;78.20
8910;DHT22;4490;49.072;8.804;2023-04-08T10:12:01;14.60;78.30
8910;DHT22;4490;49.072;8.804;2023-04-08T10:14:28;14.60;78.80
8910;DHT22;4490;49.072;8.804;2023-04-08T10:17:25;14.60;78.50
8910;DHT22;4490;49.072;8.804;2023-04-08T10:19:54;14.70;77.60
8910;DHT22;4490;49.072;8.804;2023-04-08T10:25:27;14.70;77.50
8910;DHT22;4490;49.072;8.804;2023-04-08T10:27:52;14.70;75.80
8910;DHT22;4490;49.072;8.804;2023-04-08T10:32:56;14.70;75.50
8910;DHT22;4490;49.072;8.804;2023-04-08T10:35:31;14.70;74.30
8910;DHT22;4490;49.072;8.804;2023-04-08T10:38:00;14.70;75.30
8910;DHT22;4490;49.072;8.804;2023-04-08T10:40:25;14.60;75.90
8910;DHT22;4490;49.072;8.804;2023-04-08T10:42:57;14.60;76.10
8910;DHT22;4490;49.072;8.804;2023-04-08T10:45:23;14.60;77.00
8910;DHT22;4490;49.072;8.804;2023-04-08T10:47:49;14.60;76.10
8910;DHT22;4490;49.072;8.804;2023-04-08T10:50:16;14.50;75.90
8910;DHT22;4490;49.072;8.804;2023-04-08T10:52:49;14.60;74.80
8910;DHT22;4490;49.072;8.804;2023-04-08T10:55:15;14.50;74.00
8910;DHT22;4490;49.072;8.804;2023-04-08T10:57:43;14.50;75.10
8910;DHT22;4490;49.072;8.804;2023-04-08T11:00:17;14.50;75.10
8910;DHT22;4490;49.072;8.804;2023-04-08T11:02:42;14.50;75.40
8910;DHT22;4490;49.072;8.804;2023-04-08T11:05:09;14.50;75.90
8910;DHT22;4490;49.072;8.804;2023-04-08T11:07:41;14.50;75.70
8910;DHT22;4490;49.072;8.804;2023-04-08T11:10:09;14.50;75.50
8910;DHT22;4490;49.072;8.804;2023-04-08T11:12:35;14.60;74.70
8910;DHT22;4490;49.072;8.804;2023-04-08T11:15:03;14.60;74.70
8910;DHT22;4490;49.072;8.804;2023-04-08T11:17:30;14.60;74.10
8910;DHT22;4490;49.072;8.804;2023-04-08T11:19:56;14.70;73.90
8910;DHT22;4490;49.072;8.804;2023-04-08T11:22:27;14.70;73.60
8910;DHT22;4490;49.072;8.804;2023-04-08T11:24:54;14.70;73.10
8910;DHT22;4490;49.072;8.804;2023-04-08T11:27:20;14.60;72.80
8910;DHT22;4490;49.072;8.804;2023-04-08T11:29:50;14.60;73.10
8910;DHT22;4490;49.072;8.804;2023-04-08T11:32:20;14.50;72.60
8910;DHT22;4490;49.072;8.804;2023-04-08T11:34:46;14.50;72.50
8910;DHT22;4490;49.072;8.804;2023-04-08T11:37:12;14.40;73.20
8910;DHT22;4490;49.072;8.804;2023-04-08T11:39:44;14.30;73.70
8910;DHT22;4490;49.072;8.804;2023-04-08T11:42:30;14.30;74.60
8910;DHT22;4490;49.072;8.804;2023-04-08T11:44:56;14.30;75.10
8910;DHT22;4490;49.072;8.804;2023-04-08T11:47:29;14.20;75.40
8910;DHT22;4490;49.072;8.804;2023-04-08T11:49:54;14.20;75.50
8910;DHT22;4490;49.072;8.804;2023-04-08T11:52:20;14.20;75.70
8910;DHT22;4490;49.072;8.804;2023-04-08T11:54:47;14.20;75.70
8910;DHT22;4490;49.072;8.804;2023-04-08T11:57:13;14.20;75.40
8910;DHT22;4490;49.072;8.804;2023-04-08T11:59:39;14.10;74.50
8910;DHT22;4490;49.072;8.804;2023-04-08T12:02:06;14.10;74.40
8910;DHT22;4490;49.072;8.804;2023-04-08T12:04:32;14.10;74.10
8910;DHT22;4490;49.072;8.804;2023-04-08T12:06:58;14.10;75.00
8910;DHT22;4490;49.072;8.804;2023-04-08T12:09:24;14.10;75.10
8910;DHT22;4490;49.072;8.804;2023-04-08T12:11:49;14.10;74.60
8910;DHT22;4490;49.072;8.804;2023-04-08T12:14:15;14.10;74.60
8910;DHT22;4490;49.072;8.804;2023-04-08T12:16:41;14.10;74.60
8910;DHT22;4490;49.072;8.804;2023-04-08T12:19:06;14.10;74.00
8910;DHT22;4490;49.072;8.804;2023-04-08T12:21:32;14.10;73.70
8910;DHT22;4490;49.072;8.804;2023-04-08T12:23:58;14.10;74.70
8910;DHT22;4490;49.072;8.804;2023-04-08T12:26:24;14.10;74.70
8910;DHT22;4490;49.072;8.804;2023-04-08T12:28:51;14.20;74.50
8910;DHT22;4490;49.072;8.804;2023-04-08T12:31:17;14.20;74.20
8910;DHT22;4490;49.072;8.804;2023-04-08T12:33:42;14.20;74.00
8910;DHT22;4490;49.072;8.804;2023-04-08T12:36:08;14.20;73.80
8910;DHT22;4490;49.072;8.804;2023-04-08T12:38:34;14.30;73.50
8910;DHT22;4490;49.072;8.804;2023-04-08T12:40:59;14.30;73.30
8910;DHT22;4490;49.072;8.804;2023-04-08T12:43:25;14.40;73.90
8910;DHT22;4490;49.072;8.804;2023-04-08T12:45:51;14.50;73.80
8910;DHT22;4490;49.072;8.804;2023-04-08T12:48:16;14.60;72.50
8910;DHT22;4490;49.072;8.804;2023-04-08T12:50:42;14.60;71.40
8910;DHT22;4490;49.072;8.804;2023-04-08T12:53:08;14.70;72.00
8910;DHT22;4490;49.072;8.804;2023-04-08T12:55:34;14.80;70.20
8910;DHT22;4490;49.072;8.804;2023-04-08T12:57:59;14.80;70.50
8910;DHT22;4490;49.072;8.804;2023-04-08T13:00:25;14.90;70.10
8910;DHT22;4490;49.072;8.804;2023-04-08T13:02:51;15.00;69.90
8910;DHT22;4490;49.072;8.804;2023-04-08T13:05:16;15.00;70.30
8910;DHT22;4490;49.072;8.804;2023-04-08T13:07:42;15.10;69.50
8910;DHT22;4490;49.072;8.804;2023-04-08T15:59:57;13.00;70.30
8910;DHT22;4490;49.072;8.804;2023-04-08T16:02:23;12.90;71.40
8910;DHT22;4490;49.072;8.804;2023-04-08T16:04:48;12.90;72.60
8910;DHT22;4490;49.072;8.804;2023-04-08T16:07:14;13.00;73.20
8910;DHT22;4490;49.072;8.804;2023-04-08T16:09:41;13.00;73.60
8910;DHT22;4490;49.072;8.804;2023-04-08T16:12:06;13.10;73.60
8910;DHT22;4490;49.072;8.804;2023-04-08T16:14:32;13.20;73.80
8910;DHT22;4490;49.072;8.804;2023-04-08T16:16:58;13.30;73.80
8910;DHT22;4490;49.072;8.804;2023-04-08T16:19:24;13.40;73.90
8910;DHT22;4490;49.072;8.804;2023-04-08T16:21:49;13.40;73.60
8910;DHT22;4490;49.072;8.804;2023-04-08T16:24:15;13.50;73.60
8910;DHT22;4490;49.072;8.804;2023-04-08T16:26:40;13.50;73.60
8910;DHT22;4490;49.072;8.804;2023-04-08T16:29:06;13.50;73.50
8910;DHT22;4490;49.072;8.804;2023-04-08T16:31:32;13.60;74.00
8910;DHT22;4490;49.072;8.804;2023-04-08T16:33:58;13.50;74.10
8910;DHT22;4490;49.072;8.804;2023-04-08T16:36:23;13.50;73.90
8910;DHT22;4490;49.072;8.804;2023-04-08T16:38:49;13.50;73.80
8910;DHT22;4490;49.072;8.804;2023-04-08T16:41:15;13.50;73.60
8910;DHT22;4490;49.072;8.804;2023-04-08T16:43:41;13.50;73.60
8910;DHT22;4490;49.072;8.804;2023-04-08T16:46:16;13.40;73.70
8910;DHT22;4490;49.072;8.804;2023-04-08T16:48:42;13.40;73.60
8910;DHT22;4490;49.072;8.804;2023-04-08T16:51:09;13.40;73.70
8910;DHT22;4490;49.072;8.804;2023-04-08T16:53:35;13.40;73.60
8910;DHT22;4490;49.072;8.804;2023-04-08T16:56:02;13.30;73.90
8910;DHT22;4490;49.072;8.804;2023-04-08T16:58:27;13.30;73.90
8910;DHT22;4490;49.072;8.804;2023-04-08T17:00:53;13.30;73.90
8910;DHT22;4490;49.072;8.804;2023-04-08T17:03:19;13.20;73.90
8910;DHT22;4490;49.072;8.804;2023-04-08T17:05:44;13.20;74.30
8910;DHT22;4490;49.072;8.804;2023-04-08T17:08:10;13.20;74.50
8910;DHT22;4490;49.072;8.804;2023-04-08T17:10:36;13.10;74.40
8910;DHT22;4490;49.072;8.804;2023-04-08T17:13:01;13.00;74.80
8910;DHT22;4490;49.072;8.804;2023-04-08T17:15:29;13.00;74.90
8910;DHT22;4490;49.072;8.804;2023-04-08T17:17:55;12.90;74.60
8910;DHT22;4490;49.072;8.804;2023-04-08T17:20:20;12.90;74.70
8910;DHT22;4490;49.072;8.804;2023-04-08T17:22:46;12.80;74.90
8910;DHT22;4490;49.072;8.804;2023-04-08T17:25:12;12.80;75.00
8910;DHT22;4490;49.072;8.804;2023-04-08T17:27:38;12.80;75.00
8910;DHT22;4490;49.072;8.804;2023-04-08T17:30:04;12.70;75.00
8910;DHT22;4490;49.072;8.804;2023-04-08T17:32:29;12.70;75.40
8910;DHT22;4490;49.072;8.804;2023-04-08T17:34:55;12.70;75.70
8910;DHT22;4490;49.072;8.804;2023-04-08T17:37:21;12.70;75.90
8910;DHT22;4490;49.072;8.804;2023-04-08T17:39:46;12.60;75.60
8910;DHT22;4490;49.072;8.804;2023-04-08T17:42:12;12.60;76.10
8910;DHT22;4490;49.072;8.804;2023-04-08T17:44:38;12.50;76.20
8910;DHT22;4490;49.072;8.804;2023-04-08T17:47:06;12.50;76.30
8910;DHT22;4490;49.072;8.804;2023-04-08T17:49:32;12.50;76.40
8910;DHT22;4490;49.072;8.804;2023-04-08T17:51:58;12.40;76.20
8910;DHT22;4490;49.072;8.804;2023-04-08T17:54:23;12.40;76.70
8910;DHT22;4490;49.072;8.804;2023-04-08T17:56:49;12.40;76.90
8910;DHT22;4490;49.072;8.804;2023-04-08T17:59:15;12.40;77.60
8910;DHT22;4490;49.072;8.804;2023-04-08T18:01:40;12.30;77.60
8910;DHT22;4490;49.072;8.804;2023-04-08T18:04:06;12.30;77.90
8910;DHT22;4490;49.072;8.804;2023-04-08T18:06:35;12.30;78.20
8910;DHT22;4490;49.072;8.804;2023-04-08T18:09:01;12.30;78.50
8910;DHT22;4490;49.072;8.804;2023-04-08T18:11:30;12.20;78.90
8910;DHT22;4490;49.072;8.804;2023-04-08T18:13:56;12.20;79.40
8910;DHT22;4490;49.072;8.804;2023-04-08T18:16:22;12.10;79.40
8910;DHT22;4490;49.072;8.804;2023-04-08T18:18:48;12.00;79.60
8910;DHT22;4490;49.072;8.804;2023-04-08T18:21:14;12.00;79.90
8910;DHT22;4490;49.072;8.804;2023-04-08T18:23:42;11.90;80.00
8910;DHT22;4490;49.072;8.804;2023-04-08T18:26:09;11.90;80.30
8910;DHT22;4490;49.072;8.804;2023-04-08T18:28:35;11.80;80.40
8910;DHT22;4490;49.072;8.804;2023-04-08T18:31:01;11.80;80.90
8910;DHT22;4490;49.072;8.804;2023-04-08T18:33:26;11.80;81.20
8910;DHT22;4490;49.072;8.804;2023-04-08T18:35:53;11.70;81.10
8910;DHT22;4490;49.072;8.804;2023-04-08T18:38:19;11.70;81.20
8910;DHT22;4490;49.072;8.804;2023-04-08T18:40:45;11.70;81.40
8910;DHT22;4490;49.072;8.804;2023-04-08T18:43:12;11.60;81.60
8910;DHT22;4490;49.072;8.804;2023-04-08T18:45:41;11.60;82.00
8910;DHT22;4490;49.072;8.804;2023-04-08T18:48:07;11.50;82.40
8910;DHT22;4490;49.072;8.804;2023-04-08T18:50:33;11.50;82.70
8910;DHT22;4490;49.072;8.804;2023-04-08T18:52:59;11.50;83.10
8910;DHT22;4490;49.072;8.804;2023-04-08T18:55:25;11.40;83.30
8910;DHT22;4490;49.072;8.804;2023-04-08T18:57:50;11.40;83.80
8910;DHT22;4490;49.072;8.804;2023-04-08T19:00:16;11.40;83.90
8910;DHT22;4490;49.072;8.804;2023-04-08T19:02:42;11.40;84.00
8910;DHT22;4490;49.072;8.804;2023-04-08T19:05:08;11.40;84.40
8910;DHT22;4490;49.072;8.804;2023-04-08T19:07:33;11.40;84.50
8910;DHT22;4490;49.072;8.804;2023-04-08T19:09:59;11.30;84.50
8910;DHT22;4490;49.072;8.804;2023-04-08T19:12:25;11.30;84.70